Latest Weather Observations for Jandakot

IDW60801

Issued at 3:03 pm WST Saturday 6 February 2016 (issued every 30 minutes, with the page automatically refreshed every 10 minutes)

About weather observations | Map of weather stations | Latest weather observations for WA | Other Formats
Station Details ID: 009172 Name: JANDAKOT AERO Lat: -32.10 Lon: 115.88 Height: 30.0 m
Data from the previous 72 hours. | See also: Recent months at Jandakot
Date/Time
WST
Temp
°C
App
Temp
°C
Dew
Point
Rel
Hum
%
Delta-T
°C
Wind Press
QNH
hPa
Press
MSL
hPa
Rain
since 9 am
mm
Dir
 
Spd
km/h
Gust
km/h
Spd
kts
Gust
kts
06/03:00pm 32.2 28.8 13.7 32 11.2 SW 24 32 13 17 1013.9 1013.7 0.0
06/02:30pm 32.0 28.8 13.2 31 11.3 WSW 22 30 12 16 1014.1 1013.9 0.0
06/02:00pm 32.0 28.6 12.4 30 11.6 WSW 22 32 12 17 1014.3 1014.1 0.0
06/01:30pm 31.1 27.3 12.5 32 11.0 WSW 24 28 13 15 1014.4 1014.2 0.0
06/01:00pm 30.7 27.0 12.6 33 10.7 WSW 24 30 13 16 1014.6 1014.4 0.0
06/12:30pm 30.4 27.2 15.3 40 9.3 WSW 26 32 14 17 1014.7 1014.5 0.0
06/12:00pm 31.3 28.1 14.2 35 10.4 WSW 24 32 13 17 1014.8 1014.6 0.0
06/11:30am 32.7 30.5 7.7 21 13.8 NNW 9 13 5 7 1015.0 1014.8 0.0
06/11:00am 31.1 29.8 11.3 29 11.5 NW 9 13 5 7 1015.3 1015.1 0.0
06/10:30am 29.8 28.6 11.7 32 10.5 S 9 13 5 7 1015.8 1015.7 0.0
06/10:00am 28.8 27.6 11.7 34 9.9 SW 9 15 5 8 1016.0 1015.9 0.0
06/09:30am 27.6 26.0 11.6 37 9.2 SW 11 17 6 9 1016.3 1016.2 0.0
06/09:00am 26.6 26.0 12.2 40 8.3 ENE 7 11 4 6 1015.9 1015.8 0.0
06/08:30am 25.7 24.3 12.3 43 7.7 ESE 11 15 6 8 1015.8 1015.7 0.0
06/08:00am 24.0 22.9 12.0 47 6.8 ESE 9 13 5 7 1015.7 1015.6 0.0
06/07:30am 23.1 21.6 12.0 49 6.3 SSE 11 15 6 8 1015.7 1015.6 0.0
06/07:00am 21.0 19.4 11.7 55 5.2 SSE 11 13 6 7 1015.5 1015.4 0.0
06/06:30am 19.4 17.9 11.8 61 4.2 S 11 15 6 8 1015.2 1015.0 0.0
06/06:00am 18.1 16.5 11.7 66 3.5 S 11 13 6 7 1014.9 1014.7 0.0
06/05:30am 18.0 17.0 12.4 70 3.1 S 9 11 5 6 1014.5 1014.3 0.0
06/05:00am 18.5 17.5 12.4 67 3.4 S 9 11 5 6 1014.4 1014.2 0.0
06/04:30am 19.7 19.1 12.4 62 4.1 S 7 9 4 5 1014.2 1014.0 0.0
06/04:00am 20.0 18.6 12.3 61 4.3 SSW 11 15 6 8 1014.0 1013.8 0.0
06/03:30am 20.5 18.8 12.5 60 4.5 SSW 13 15 7 8 1013.9 1013.7 0.0
06/03:00am 20.6 19.1 13.1 62 4.3 SSW 13 15 7 8 1013.7 1013.5 0.0
06/02:30am 20.8 19.7 13.1 61 4.4 SSW 11 13 6 7 1013.5 1013.3 0.0
06/02:00am 19.7 19.6 14.0 69 3.3 S 7 9 4 5 1013.5 1013.3 0.0
06/01:30am 21.6 21.2 14.2 62 4.3 S 9 11 5 6 1013.6 1013.4 0.0
06/01:00am 22.0 21.3 14.3 61 4.5 S 11 13 6 7 1013.7 1013.5 0.0
06/12:30am 21.9 22.0 15.4 66 3.9 S 9 11 5 6 1013.9 1013.7 0.0
06/12:00am 22.6 22.0 15.6 64 4.2 S 13 15 7 8 1014.3 1014.1 0.0
 
Date/Time
WST
Temp
°C
App
Temp
°C
Dew
Point
Rel
Hum
%
Delta-T
°C
Wind Press
QNH
hPa
Press
MSL
hPa
Rain
since 9 am
mm
Dir
 
Spd
km/h
Gust
km/h
Spd
kts
Gust
kts
05/11:30pm 22.7 22.6 15.9 65 4.1 S 11 13 6 7 1014.4 1014.2 0.0
05/11:00pm 22.9 22.7 15.6 63 4.4 SSW 11 15 6 8 1014.5 1014.3 0.0
05/10:30pm 22.9 22.7 14.8 60 4.8 SSW 9 13 5 7 1014.8 1014.6 0.0
05/10:00pm 23.1 22.9 14.7 59 5.0 S 9 11 5 6 1014.8 1014.6 0.0
05/09:30pm 24.0 23.7 14.4 55 5.7 SSW 9 11 5 6 1014.6 1014.4 0.0
05/09:00pm 24.8 24.0 13.9 50 6.4 SSW 11 15 6 8 1014.4 1014.2 0.0
05/08:30pm 25.5 23.7 13.4 47 7.1 S 15 20 8 11 1014.1 1013.9 0.0
05/08:00pm 25.5 24.1 13.4 47 7.1 SW 13 17 7 9 1013.8 1013.6 0.0
05/07:30pm 26.3 24.5 13.2 44 7.7 SW 15 20 8 11 1013.5 1013.3 0.0
05/07:00pm 27.8 24.9 12.3 38 9.0 SW 19 24 10 13 1013.4 1013.2 0.0
05/06:30pm 29.1 25.2 10.7 32 10.5 SW 22 30 12 16 1013.1 1012.9 0.0
05/06:00pm 30.6 25.9 9.4 26 11.9 SW 24 30 13 16 1013.0 1012.8 0.0
05/05:30pm 31.0 25.6 8.2 24 12.6 SW 26 37 14 20 1012.9 1012.7 0.0
05/05:00pm 31.5 26.2 6.7 21 13.4 SW 24 32 13 17 1012.7 1012.5 0.0
05/04:30pm 31.9 26.0 5.9 19 13.9 SSW 26 33 14 18 1012.8 1012.6 0.0
05/04:00pm 32.4 27.9 8.7 23 13.3 SW 22 30 12 16 1012.8 1012.6 0.0
05/03:30pm 32.0 26.1 5.8 19 14.0 SW 26 35 14 19 1013.0 1012.8 0.0
05/03:00pm 32.0 26.0 7.0 21 13.6 WSW 28 39 15 21 1013.3 1013.1 0.0
05/02:30pm 31.0 24.9 9.8 27 12.0 WSW 32 39 17 21 1013.4 1013.2 0.0
05/02:00pm 30.5 24.7 12.8 33 10.5 SW 35 43 19 23 1013.5 1013.3 0.0
05/01:30pm 34.4 27.0 3.9 15 16.0 W 32 41 17 22 1013.3 1013.1 0.0
05/01:00pm 35.0 28.8 4.5 15 16.2 W 26 37 14 20 1013.4 1013.2 0.0
05/12:30pm 34.7 31.2 5.6 16 15.7 S 13 20 7 11 1013.7 1013.5 0.0
05/12:00pm 33.8 31.0 5.1 16 15.3 SSE 9 22 5 12 1014.1 1013.9 0.0
05/11:30am 33.9 30.9 6.0 17 15.1 NNW 11 17 6 9 1014.5 1014.3 0.0
05/11:00am 34.3 31.5 6.8 18 15.1 N 11 20 6 11 1014.8 1014.6 0.0
05/10:30am 32.8 29.2 8.2 21 13.7 NE 17 20 9 11 1015.1 1014.9 0.0
05/10:00am 31.3 27.6 7.8 23 12.9 NNE 17 32 9 17 1015.4 1015.3 0.0
05/09:30am 30.4 27.1 7.9 24 12.3 NNE 15 22 8 12 1015.5 1015.4 0.0
05/09:00am 29.6 26.4 8.3 26 11.7 NNE 15 20 8 11 1015.6 1015.5 0.0
05/08:30am 28.3 23.8 6.9 26 11.4 NE 20 28 11 15 1015.6 1015.5 0.0
05/08:00am 26.8 24.4 8.6 31 9.9 ENE 11 15 6 8 1015.6 1015.5 0.0
05/07:30am 24.7 23.5 9.7 38 8.2 E 6 9 3 5 1015.8 1015.7 0.0
05/07:00am 21.5 21.7 11.9 54 5.4 ESE 2 7 1 4 1015.6 1015.5 0.0
05/06:30am 17.2 16.4 11.7 70 3.0 ESE 7 7 4 4 1015.4 1015.3 0.0
05/06:00am 14.8 13.3 9.3 69 2.8 ESE 7 9 4 5 1015.2 1015.0 0.0
05/05:30am 14.5 13.3 9.4 71 2.6 ESE 6 7 3 4 1014.9 1014.7 0.0
05/05:00am 14.7 14.5 9.0 68 2.9 CALM 0 0 0 0 1014.7 1014.5 0.0
05/04:30am 14.1 13.9 9.0 71 2.6 CALM 0 0 0 0 1014.3 1014.1 0.0
05/04:00am 15.2 15.0 8.9 66 3.2 CALM 0 0 0 0 1014.2 1014.0 0.0
05/03:30am 15.1 15.0 9.5 69 2.9 CALM 0 0 0 0 1014.2 1014.0 0.0
05/03:00am 15.8 15.7 9.4 65 3.3 CALM 0 0 0 0 1014.2 1014.0 0.0
05/02:30am 16.4 15.2 9.7 64 3.5 S 6 7 3 4 1014.4 1014.2 0.0
05/02:00am 16.2 14.7 9.2 63 3.6 S 7 9 4 5 1014.6 1014.4 0.0
05/01:30am 16.6 15.1 9.3 62 3.8 S 7 9 4 5 1014.9 1014.7 0.0
05/01:00am 16.8 15.5 9.3 61 3.9 SSW 6 7 3 4 1015.1 1014.9 0.0
05/12:30am 17.6 16.2 9.4 58 4.3 S 7 9 4 5 1015.3 1015.1 0.0
05/12:00am 18.6 17.4 9.5 55 4.8 SSW 6 7 3 4 1015.4 1015.3 0.0
 
Date/Time
WST
Temp
°C
App
Temp
°C
Dew
Point
Rel
Hum
%
Delta-T
°C
Wind Press
QNH
hPa
Press
MSL
hPa
Rain
since 9 am
mm
Dir
 
Spd
km/h
Gust
km/h
Spd
kts
Gust
kts
04/11:30pm 20.8 19.4 9.6 48 6.0 S 7 9 4 5 1015.6 1015.5 0.0
04/11:00pm 22.1 20.2 9.2 43 6.9 S 9 11 5 6 1015.7 1015.6 0.0
04/10:30pm 23.0 20.1 8.2 38 7.8 S 13 17 7 9 1016.0 1015.9 0.0
04/10:00pm 23.5 20.6 8.2 37 8.1 S 13 17 7 9 1016.2 1016.1 0.0
04/09:30pm 23.9 21.0 8.3 37 8.3 S 13 17 7 9 1016.2 1016.1 0.0
04/09:00pm 24.5 21.4 8.7 36 8.5 S 15 19 8 10 1016.1 1016.0 0.0
04/08:30pm 24.9 22.3 9.3 37 8.5 S 13 17 7 9 1016.0 1015.9 0.0
04/08:00pm 25.4 22.8 9.5 36 8.7 SSW 13 17 7 9 1015.7 1015.6 0.0
04/07:30pm 26.4 22.8 8.2 31 9.8 SSW 17 20 9 11 1015.6 1015.5 0.0
04/07:00pm 27.5 23.0 6.9 27 10.9 SSW 20 28 11 15 1015.5 1015.4 0.0
04/06:30pm 28.6 23.6 6.5 24 11.7 SSW 22 32 12 17 1015.3 1015.1 0.0
04/06:00pm 29.4 24.5 6.8 24 12.1 SSW 22 32 12 17 1015.1 1014.9 0.0
04/05:30pm 30.0 24.0 6.9 23 12.4 SSW 28 37 15 20 1015.0 1014.8 0.0
04/05:00pm 30.3 24.4 8.9 26 11.9 SW 30 37 16 20 1014.9 1014.7 0.0
04/04:30pm 31.1 25.3 7.8 23 12.8 SW 28 37 15 20 1014.8 1014.6 0.0
04/04:00pm 31.6 26.8 8.9 24 12.7 WSW 24 30 13 16 1014.8 1014.6 0.0
04/03:30pm 32.4 26.8 8.6 23 13.3 WSW 28 39 15 21 1014.8 1014.6 0.0
04/03:00pm 33.7 30.0 6.5 18 14.8 E 15 24 8 13 1015.1 1014.9 0.0
04/02:30pm 33.3 29.7 6.7 19 14.5 ENE 15 24 8 13 1015.5 1015.4 0.0
04/02:00pm 33.2 29.9 6.2 18 14.6 E 13 22 7 12 1015.9 1015.8 0.0
04/01:30pm 32.8 30.6 7.9 21 13.8 E 9 15 5 8 1016.4 1016.3 0.0
04/01:00pm 31.9 28.1 7.7 22 13.3 ENE 17 24 9 13 1017.1 1017.0 0.0
04/12:30pm 31.4 27.7 8.0 23 12.9 ENE 17 24 9 13 1017.4 1017.3 0.0
04/12:00pm 31.8 27.1 5.3 19 14.0 ENE 19 32 10 17 1017.8 1017.7 0.0
04/11:30am 30.3 26.2 8.0 24 12.2 ENE 19 26 10 14 1018.2 1018.1 0.0
04/11:00am 30.2 26.9 9.5 27 11.6 NE 17 22 9 12 1018.6 1018.5 0.0
04/10:30am 29.0 25.6 9.1 28 11.0 NE 17 22 9 12 1019.0 1018.9 0.0
04/10:00am 28.4 24.6 9.8 31 10.4 ENE 20 28 11 15 1019.3 1019.2 0.0
04/09:30am 26.4 22.5 9.5 34 9.3 ENE 20 28 11 15 1019.4 1019.3 0.0
04/09:00am 25.3 22.1 9.8 37 8.5 ENE 17 22 9 12 1019.8 1019.7 0.0
04/08:30am 24.3 20.7 9.9 40 7.9 NE 19 26 10 14 1020.0 1019.9 0.0
04/08:00am 23.0 20.7 10.4 45 6.9 ENE 13 24 7 13 1020.0 1019.9 0.0
04/07:30am 21.9 20.5 11.0 50 6.0 E 9 15 5 8 1019.9 1019.8 0.0
04/07:00am 20.2 18.5 11.3 56 4.9 E 11 15 6 8 1019.8 1019.7 0.0
04/06:30am 19.1 17.3 11.0 59 4.4 E 11 17 6 9 1019.7 1019.6 0.0
04/06:00am 17.9 15.6 10.6 62 3.9 E 13 19 7 10 1019.6 1019.5 0.0
04/05:30am 17.9 15.6 10.4 61 4.0 ESE 13 19 7 10 1019.5 1019.4 0.0
04/05:00am 18.3 15.9 10.2 59 4.3 ESE 13 20 7 11 1019.3 1019.2 0.0
04/04:30am 18.6 16.2 10.2 58 4.5 ESE 13 19 7 10 1018.8 1018.7 0.0
04/04:00am 19.1 16.3 9.9 55 4.9 E 15 22 8 12 1018.6 1018.5 0.0
04/03:30am 19.6 16.1 8.9 50 5.6 E 17 26 9 14 1018.6 1018.5 0.0
04/03:00am 17.5 14.7 8.5 55 4.6 ESE 13 17 7 9 1018.5 1018.4 0.0
04/02:30am 18.4 15.0 7.8 50 5.4 ESE 15 17 8 9 1018.5 1018.4 0.0
04/02:00am 17.1 13.7 7.5 53 4.8 SE 15 17 8 9 1018.3 1018.2 0.0
04/01:30am 17.6 14.6 7.5 51 5.1 SE 13 17 7 9 1018.2 1018.1 0.0
04/01:00am 17.9 14.4 7.4 50 5.3 ESE 15 17 8 9 1018.4 1018.3 0.0
04/12:30am 15.6 14.9 13.1 85 1.4 ESE 9 11 5 6 1018.7 1018.6 0.0
04/12:00am 16.2 15.9 13.3 83 1.6 SSE 7 7 4 4 1018.8 1018.7 0.0
 
Date/Time
WST
Temp
°C
App
Temp
°C
Dew
Point
Rel
Hum
%
Delta-T
°C
Wind Press
QNH
hPa
Press
MSL
hPa
Rain
since 9 am
mm
Dir
 
Spd
km/h
Gust
km/h
Spd
kts
Gust
kts
03/11:30pm 16.5 16.1 13.1 80 1.9 SSE 7 9 4 5 1018.8 1018.7 0.0
03/11:00pm 17.6 17.4 13.5 77 2.3 S 7 7 4 4 1018.9 1018.8 0.0
03/10:30pm 19.4 19.7 14.4 73 2.9 S 6 9 3 5 1019.1 1019.0 0.0
03/10:00pm 20.0 20.0 14.3 69 3.3 S 7 11 4 6 1019.3 1019.2 0.0
03/09:30pm 20.6 19.9 14.2 66 3.7 S 11 13 6 7 1019.4 1019.3 0.0
03/09:00pm 21.3 20.5 14.1 63 4.2 S 11 15 6 8 1019.3 1019.2 0.0
03/08:30pm 22.0 20.7 13.7 59 4.8 S 13 19 7 10 1019.2 1019.1 0.0
03/08:00pm 22.5 21.4 14.3 59 4.8 SSW 13 19 7 10 1018.9 1018.8 0.0
03/07:30pm 23.2 21.2 14.0 56 5.4 SSW 17 22 9 12 1018.7 1018.6 0.0
03/07:00pm 24.4 22.1 13.0 49 6.6 SSW 17 26 9 14 1018.3 1018.2 0.0
03/06:30pm 25.6 21.2 10.5 38 8.4 SSW 24 32 13 17 1018.1 1018.0 0.0
03/06:00pm 26.3 21.3 11.1 38 8.6 SW 28 35 15 19 1017.8 1017.7 0.0
03/05:30pm 27.0 22.2 10.4 35 9.3 SW 26 33 14 18 1017.6 1017.5 0.0
03/05:00pm 27.4 22.1 9.8 33 9.8 SW 28 35 15 19 1017.4 1017.3 0.0
03/04:30pm 27.6 21.9 11.1 35 9.4 SW 32 43 17 23 1017.2 1017.1 0.0
03/04:00pm 28.0 23.0 12.1 37 9.2 SW 30 35 16 19 1017.2 1017.1 0.0
03/03:30pm 28.8 24.7 12.6 36 9.5 SW 26 37 14 20 1017.3 1017.2 0.0

Other Formats:

Comma delimited format used in spreadsheet applications
http://www.bom.gov.au/fwo/IDW60801/IDW60801.94609.axf

JavaScript Object Notation format (JSON) in row-major order
http://www.bom.gov.au/fwo/IDW60801/IDW60801.94609.json